createdAt,value
2018-08-30T00:00:29.434Z,15.70
2018-08-30T00:02:34.150Z,15.70
2018-08-30T00:04:38.977Z,15.80
2018-08-30T00:06:43.676Z,15.70
2018-08-30T00:08:48.510Z,15.50
2018-08-30T00:10:53.418Z,15.50
2018-08-30T00:12:58.228Z,15.50
2018-08-30T00:15:02.961Z,15.50
2018-08-30T00:17:07.720Z,15.40
2018-08-30T00:19:12.466Z,15.50
2018-08-30T00:21:17.204Z,15.50
2018-08-30T00:23:21.947Z,15.40
2018-08-30T00:25:26.715Z,15.40
2018-08-30T00:27:31.445Z,15.50
2018-08-30T00:29:36.355Z,15.50
2018-08-30T00:31:41.093Z,15.50
2018-08-30T00:33:45.914Z,15.50
2018-08-30T00:35:50.717Z,15.50
2018-08-30T00:37:55.500Z,15.50
2018-08-30T00:40:00.242Z,15.40
2018-08-30T00:42:05.079Z,15.40
2018-08-30T00:44:09.911Z,15.50
2018-08-30T00:46:14.728Z,15.50
2018-08-30T00:48:19.572Z,15.40
2018-08-30T00:52:21.109Z,15.40
2018-08-30T00:54:25.884Z,15.50
2018-08-30T00:56:30.766Z,15.60
2018-08-30T00:58:35.570Z,15.60
2018-08-30T01:00:40.325Z,15.60
2018-08-30T01:02:45.118Z,15.60
2018-08-30T01:04:49.787Z,15.60
2018-08-30T01:06:54.639Z,15.70
2018-08-30T01:08:59.474Z,15.70
2018-08-30T01:11:04.211Z,15.70
2018-08-30T01:13:09.005Z,15.60
2018-08-30T01:15:13.667Z,15.70
2018-08-30T01:17:18.462Z,15.80
2018-08-30T01:19:23.318Z,15.70
2018-08-30T01:21:28.259Z,15.70
2018-08-30T01:23:33.105Z,15.70
2018-08-30T01:25:38.086Z,15.70
2018-08-30T01:27:42.874Z,15.70
2018-08-30T01:29:47.590Z,15.70
2018-08-30T01:31:52.459Z,15.80
2018-08-30T01:33:57.208Z,15.90
2018-08-30T01:36:01.973Z,15.80
2018-08-30T01:38:06.758Z,15.70
2018-08-30T01:40:11.503Z,15.70
2018-08-30T01:42:16.180Z,15.70
2018-08-30T01:44:20.906Z,15.70
2018-08-30T01:46:25.660Z,15.80
2018-08-30T01:48:30.587Z,15.70
2018-08-30T01:50:36.312Z,15.70
2018-08-30T01:52:41.195Z,15.70
2018-08-30T01:54:45.996Z,15.70
2018-08-30T01:56:50.913Z,15.80
2018-08-30T01:58:55.789Z,15.80
2018-08-30T02:01:00.573Z,15.80
2018-08-30T02:03:05.831Z,15.80
2018-08-30T02:05:10.611Z,15.90
2018-08-30T02:07:15.468Z,15.90
2018-08-30T02:09:20.236Z,15.90
2018-08-30T02:11:24.931Z,15.80
2018-08-30T02:13:29.673Z,15.70
2018-08-30T02:15:34.509Z,15.80
2018-08-30T02:17:39.430Z,15.90
2018-08-30T02:19:44.245Z,15.90
2018-08-30T02:21:49.053Z,15.90
2018-08-30T02:23:53.829Z,15.90
2018-08-30T02:25:58.532Z,15.80
2018-08-30T02:28:03.521Z,15.80
2018-08-30T02:30:08.430Z,15.80
2018-08-30T02:32:13.091Z,15.80
2018-08-30T02:34:17.920Z,15.90
2018-08-30T02:36:22.738Z,15.80
2018-08-30T02:38:27.545Z,15.80
2018-08-30T02:40:32.595Z,15.80
2018-08-30T02:42:37.481Z,15.90
2018-08-30T02:44:42.491Z,15.90
2018-08-30T02:46:47.352Z,15.80
2018-08-30T02:48:52.134Z,15.80
2018-08-30T02:50:57.033Z,15.90
2018-08-30T02:53:01.964Z,15.80
2018-08-30T02:55:06.800Z,15.90
2018-08-30T02:57:11.703Z,16.00
2018-08-30T02:59:16.509Z,16.10
2018-08-30T03:01:21.332Z,16.00
2018-08-30T03:03:26.260Z,16.00
2018-08-30T03:05:31.140Z,16.00
2018-08-30T03:07:35.901Z,16.00
2018-08-30T03:09:40.668Z,16.00
2018-08-30T03:11:45.354Z,16.00
2018-08-30T03:13:50.188Z,16.00
2018-08-30T03:15:54.964Z,15.90
2018-08-30T03:17:59.805Z,15.90
2018-08-30T03:20:05.752Z,16.00
2018-08-30T03:22:10.541Z,16.00
2018-08-30T03:24:15.264Z,16.00
2018-08-30T03:26:20.053Z,16.00
2018-08-30T03:28:24.796Z,16.00
2018-08-30T03:30:29.787Z,15.80
2018-08-30T03:32:34.368Z,15.80
2018-08-30T03:34:39.053Z,15.80
2018-08-30T03:36:43.959Z,15.80
2018-08-30T03:38:49.225Z,15.80
2018-08-30T03:40:54.086Z,15.80
2018-08-30T03:42:58.949Z,15.80
2018-08-30T03:45:03.771Z,15.80
2018-08-30T03:47:08.596Z,15.80
2018-08-30T03:49:13.451Z,15.90
2018-08-30T03:51:18.224Z,16.00
2018-08-30T03:53:22.908Z,16.00
2018-08-30T03:55:27.786Z,16.00
2018-08-30T03:57:32.567Z,16.00
2018-08-30T03:59:37.724Z,15.90
2018-08-30T04:01:42.527Z,16.00
2018-08-30T04:03:47.518Z,15.90
2018-08-30T04:05:52.300Z,16.00
2018-08-30T04:07:57.112Z,15.80
2018-08-30T04:10:01.905Z,15.80
2018-08-30T04:12:06.663Z,15.80
2018-08-30T04:14:11.459Z,15.90
2018-08-30T04:16:16.191Z,15.90
2018-08-30T04:18:20.893Z,15.80
2018-08-30T04:20:25.835Z,15.80
2018-08-30T04:22:30.792Z,15.90
2018-08-30T04:24:35.559Z,16.00
2018-08-30T04:26:40.297Z,16.00
2018-08-30T04:28:45.168Z,16.00
2018-08-30T04:30:49.868Z,16.10
2018-08-30T04:32:54.614Z,16.00
2018-08-30T04:34:59.382Z,16.00
2018-08-30T04:37:05.234Z,16.10
2018-08-30T04:39:10.498Z,16.00
2018-08-30T04:41:15.161Z,16.00
2018-08-30T04:43:19.883Z,15.90
2018-08-30T04:45:24.747Z,15.90
2018-08-30T04:47:29.500Z,15.90
2018-08-30T04:49:34.385Z,15.90
2018-08-30T04:51:39.198Z,16.00
2018-08-30T04:53:43.908Z,15.90
2018-08-30T04:55:48.700Z,15.90
2018-08-30T04:57:53.550Z,15.80
2018-08-30T04:59:58.244Z,15.80
2018-08-30T05:02:03.134Z,15.90
2018-08-30T05:04:07.993Z,15.90
2018-08-30T05:06:13.314Z,15.80
2018-08-30T05:08:18.170Z,15.90
2018-08-30T05:10:23.162Z,16.00
2018-08-30T05:12:27.911Z,16.00
2018-08-30T05:14:32.660Z,15.90
2018-08-30T05:16:37.829Z,15.90
2018-08-30T05:18:42.880Z,15.90
2018-08-30T05:20:47.834Z,16.10
2018-08-30T05:22:52.763Z,15.90
2018-08-30T05:24:57.920Z,15.90
2018-08-30T05:27:02.849Z,15.90
2018-08-30T05:29:07.812Z,15.90
2018-08-30T05:31:12.518Z,16.00
2018-08-30T05:33:17.307Z,16.10
2018-08-30T05:35:22.145Z,16.10
2018-08-30T05:37:27.008Z,16.10
2018-08-30T05:39:32.103Z,16.20
2018-08-30T05:41:37.127Z,16.10
2018-08-30T05:43:41.844Z,16.00
2018-08-30T05:45:46.579Z,16.00
2018-08-30T05:47:51.703Z,16.00
2018-08-30T05:49:56.382Z,16.10
2018-08-30T05:52:01.255Z,16.00
2018-08-30T05:54:06.177Z,16.00
2018-08-30T05:56:10.917Z,16.10
2018-08-30T05:58:16.136Z,16.10
2018-08-30T06:00:20.992Z,16.20
2018-08-30T06:02:26.037Z,16.20
2018-08-30T06:04:30.861Z,16.20
2018-08-30T06:06:35.594Z,16.20
2018-08-30T06:08:40.330Z,16.30
2018-08-30T06:10:45.078Z,16.30
2018-08-30T06:12:49.821Z,16.40
2018-08-30T06:14:54.843Z,16.40
2018-08-30T06:16:59.735Z,16.40
2018-08-30T06:19:04.844Z,16.30
2018-08-30T06:21:10.235Z,16.30
2018-08-30T06:23:14.916Z,16.30
2018-08-30T06:25:19.867Z,16.30
2018-08-30T06:27:24.823Z,16.20
2018-08-30T06:29:29.492Z,16.30
2018-08-30T06:31:34.319Z,16.20
2018-08-30T06:33:38.971Z,16.30
2018-08-30T06:35:43.656Z,16.30
2018-08-30T06:37:49.245Z,16.40
2018-08-30T06:39:53.982Z,16.50
2018-08-30T06:41:58.789Z,16.40
2018-08-30T06:44:03.898Z,16.40
2018-08-30T06:46:08.568Z,16.50
2018-08-30T06:48:13.264Z,16.60
2018-08-30T06:50:18.304Z,16.60
2018-08-30T06:52:23.072Z,16.60
2018-08-30T06:54:27.771Z,16.40
2018-08-30T06:56:32.615Z,16.40
2018-08-30T06:58:37.473Z,16.40
2018-08-30T07:00:42.977Z,16.30
2018-08-30T07:02:47.843Z,16.40
2018-08-30T07:04:52.719Z,16.40
2018-08-30T07:06:57.426Z,16.40
2018-08-30T07:09:02.297Z,16.50
2018-08-30T07:11:07.036Z,16.50
2018-08-30T07:13:11.739Z,16.50
2018-08-30T07:15:16.566Z,16.50
2018-08-30T07:17:21.293Z,16.50
2018-08-30T07:19:26.252Z,16.60
2018-08-30T07:21:31.257Z,16.60
2018-08-30T07:23:36.104Z,16.60
2018-08-30T07:25:40.806Z,16.70
2018-08-30T07:27:45.570Z,16.70
2018-08-30T07:29:50.315Z,16.80
2018-08-30T07:31:55.091Z,16.90
2018-08-30T07:33:59.783Z,16.90
2018-08-30T07:36:04.665Z,17.00
2018-08-30T07:38:09.465Z,17.00
2018-08-30T07:40:14.226Z,17.10
2018-08-30T07:42:19.045Z,17.20
2018-08-30T07:44:23.913Z,17.20
2018-08-30T07:46:29.018Z,17.20
2018-08-30T07:48:33.747Z,17.20
2018-08-30T07:50:38.398Z,17.10
2018-08-30T07:52:43.153Z,17.20
2018-08-30T07:54:47.862Z,17.20
2018-08-30T07:56:53.009Z,17.30
2018-08-30T07:58:58.383Z,17.30
2018-08-30T08:01:14.847Z,17.30
2018-08-30T08:03:20.419Z,17.40
2018-08-30T08:05:25.739Z,17.20
2018-08-30T08:07:30.503Z,17.10
2018-08-30T08:09:35.184Z,17.10
2018-08-30T08:11:39.871Z,17.00
2018-08-30T08:13:44.605Z,17.00
2018-08-30T08:15:49.296Z,17.00
2018-08-30T08:17:54.014Z,17.10
2018-08-30T08:19:58.724Z,17.20
2018-08-30T08:22:03.696Z,17.20
2018-08-30T08:24:08.448Z,17.20
2018-08-30T08:26:13.208Z,17.30
2018-08-30T08:28:17.943Z,17.30
2018-08-30T08:30:23.104Z,17.50
2018-08-30T08:32:27.902Z,17.60
2018-08-30T08:34:32.744Z,17.60
2018-08-30T08:36:37.472Z,17.60
2018-08-30T08:38:42.193Z,17.60
2018-08-30T08:40:47.532Z,17.70
2018-08-30T08:42:52.350Z,17.80
2018-08-30T08:44:57.095Z,17.80
2018-08-30T08:47:01.977Z,17.80
2018-08-30T08:49:06.745Z,17.90
2018-08-30T08:51:12.167Z,18.00
2018-08-30T08:53:16.974Z,18.00
2018-08-30T08:55:21.942Z,18.00
2018-08-30T08:57:26.902Z,18.00
2018-08-30T08:59:31.756Z,18.00
2018-08-30T09:01:36.553Z,18.00
2018-08-30T09:03:41.387Z,18.10
2018-08-30T09:05:46.126Z,18.10
2018-08-30T09:07:50.983Z,18.00
2018-08-30T09:09:55.734Z,18.10
2018-08-30T09:12:00.441Z,18.30
2018-08-30T09:14:05.294Z,18.30
2018-08-30T09:16:10.031Z,18.30
2018-08-30T09:18:14.761Z,18.40
2018-08-30T09:20:19.551Z,18.30
2018-08-30T09:22:24.435Z,18.30
2018-08-30T09:24:29.231Z,18.50
2018-08-30T09:26:34.315Z,18.70
2018-08-30T09:28:39.066Z,18.80
2018-08-30T09:30:43.834Z,18.50
2018-08-30T09:32:48.612Z,18.50
2018-08-30T09:34:53.722Z,18.30
2018-08-30T09:36:58.443Z,18.40
2018-08-30T09:39:03.291Z,18.50
2018-08-30T09:41:08.186Z,18.60
2018-08-30T09:43:13.223Z,18.70
2018-08-30T09:45:18.212Z,18.80
2018-08-30T09:47:22.929Z,18.80
2018-08-30T09:49:28.133Z,18.90
2018-08-30T09:51:32.945Z,18.90
2018-08-30T09:53:37.721Z,19.00
2018-08-30T09:55:42.511Z,19.10
2018-08-30T09:57:47.198Z,19.20
2018-08-30T09:59:52.038Z,19.20
2018-08-30T10:02:01.826Z,19.10
2018-08-30T10:04:06.728Z,19.10
2018-08-30T10:06:11.535Z,19.10
2018-08-30T10:08:16.310Z,19.00
2018-08-30T10:10:21.216Z,18.90
2018-08-30T10:12:26.024Z,19.00
2018-08-30T10:14:30.813Z,19.00
2018-08-30T10:16:35.825Z,19.00
2018-08-30T10:18:40.639Z,18.90
2018-08-30T10:20:45.558Z,19.00
2018-08-30T10:22:50.428Z,19.00
2018-08-30T10:24:55.195Z,19.00
2018-08-30T10:26:59.964Z,18.90
2018-08-30T10:29:04.826Z,19.00
2018-08-30T10:31:09.581Z,19.00
2018-08-30T10:33:14.308Z,19.00
2018-08-30T10:35:19.108Z,18.90
2018-08-30T10:37:23.827Z,18.90
2018-08-30T10:39:28.657Z,18.90
2018-08-30T10:41:33.536Z,19.00
2018-08-30T10:43:38.297Z,19.10
2018-08-30T10:45:43.042Z,19.20
2018-08-30T10:47:47.764Z,19.30
2018-08-30T10:49:52.589Z,19.40
2018-08-30T10:51:57.671Z,19.50
2018-08-30T10:54:02.442Z,19.60
2018-08-30T10:56:07.215Z,19.50
2018-08-30T10:58:12.011Z,19.40
2018-08-30T11:00:17.758Z,19.40
2018-08-30T11:02:22.995Z,19.30
2018-08-30T11:04:27.973Z,19.20
2018-08-30T11:06:32.954Z,19.10
2018-08-30T11:08:37.785Z,19.00
2018-08-30T11:10:42.525Z,19.00
2018-08-30T11:12:47.292Z,19.00
2018-08-30T11:14:51.985Z,19.10
2018-08-30T11:16:56.781Z,19.30
2018-08-30T11:19:01.702Z,19.50
2018-08-30T11:21:06.577Z,19.60
2018-08-30T11:23:11.376Z,19.60
2018-08-30T11:25:16.082Z,19.70
2018-08-30T11:27:20.847Z,19.60
2018-08-30T11:29:25.881Z,19.80
2018-08-30T11:31:30.695Z,19.80
2018-08-30T11:33:38.586Z,19.70
2018-08-30T11:35:43.265Z,19.80
2018-08-30T11:37:48.008Z,19.80
2018-08-30T11:39:53.004Z,19.70
2018-08-30T11:41:57.850Z,19.80
2018-08-30T11:44:02.957Z,19.80
2018-08-30T11:46:07.966Z,19.80
2018-08-30T11:48:13.162Z,19.70
2018-08-30T11:50:18.220Z,19.70
2018-08-30T11:52:23.308Z,19.60
2018-08-30T11:54:27.969Z,19.80
2018-08-30T11:56:32.822Z,19.90
2018-08-30T11:58:37.505Z,19.80
2018-08-30T12:00:42.345Z,19.70
2018-08-30T12:02:47.424Z,19.60
2018-08-30T12:04:52.928Z,19.60
2018-08-30T12:06:57.824Z,19.60
2018-08-30T12:09:02.615Z,19.70
2018-08-30T12:11:07.474Z,19.80
2018-08-30T12:13:12.099Z,19.70
2018-08-30T12:15:16.870Z,19.70
2018-08-30T12:17:21.563Z,19.70
2018-08-30T12:19:26.323Z,19.50
2018-08-30T12:21:31.098Z,19.40
2018-08-30T12:23:35.791Z,19.40
2018-08-30T12:25:40.497Z,19.30
2018-08-30T12:27:45.227Z,19.30
2018-08-30T12:29:49.907Z,19.40
2018-08-30T12:31:54.672Z,19.40
2018-08-30T12:33:59.648Z,19.50
2018-08-30T12:36:04.608Z,19.50
2018-08-30T12:38:09.438Z,19.60
2018-08-30T12:40:14.349Z,19.60
2018-08-30T12:42:18.994Z,19.50
2018-08-30T12:44:24.244Z,19.60
2018-08-30T12:46:29.418Z,19.70
2018-08-30T12:48:34.185Z,19.90
2018-08-30T12:50:39.059Z,19.90
2018-08-30T12:52:43.856Z,19.80
2018-08-30T12:54:48.726Z,19.80
2018-08-30T12:56:53.460Z,19.70
2018-08-30T12:59:03.240Z,19.70
2018-08-30T13:01:08.447Z,19.60
2018-08-30T13:03:13.329Z,19.60
2018-08-30T13:05:18.281Z,19.60
2018-08-30T13:07:24.717Z,19.60
2018-08-30T13:09:29.851Z,19.60
2018-08-30T13:11:34.592Z,19.70
2018-08-30T13:13:39.431Z,19.80
2018-08-30T13:15:44.394Z,19.90
2018-08-30T13:17:49.366Z,20.00
2018-08-30T13:19:54.206Z,20.00
2018-08-30T13:21:58.917Z,20.10
2018-08-30T13:24:03.724Z,20.20
2018-08-30T13:26:08.752Z,20.20
2018-08-30T13:28:13.426Z,20.30
2018-08-30T13:30:18.479Z,20.20
2018-08-30T13:32:23.342Z,20.20
2018-08-30T13:34:27.755Z,20.20
2018-08-30T13:36:32.468Z,20.10
2018-08-30T13:38:37.357Z,20.10
2018-08-30T13:40:42.238Z,20.10
2018-08-30T13:42:46.927Z,20.30
2018-08-30T13:44:51.723Z,20.40
2018-08-30T13:46:56.486Z,20.40
2018-08-30T13:49:01.421Z,20.30
2018-08-30T13:51:06.277Z,20.20
2018-08-30T13:53:11.188Z,20.10
2018-08-30T13:55:16.201Z,20.20
2018-08-30T13:57:20.905Z,20.40
2018-08-30T13:59:25.788Z,20.40
2018-08-30T14:01:31.892Z,20.60
2018-08-30T14:03:36.220Z,20.70
2018-08-30T14:05:41.092Z,20.70
2018-08-30T14:07:45.945Z,20.80
2018-08-30T14:09:50.876Z,20.70
2018-08-30T14:11:56.173Z,20.80
2018-08-30T14:14:00.713Z,20.90
2018-08-30T14:16:05.307Z,20.80
2018-08-30T14:18:09.994Z,20.80
2018-08-30T14:20:14.868Z,20.60
2018-08-30T14:22:19.711Z,20.70
2018-08-30T14:24:24.423Z,20.60
2018-08-30T14:26:29.236Z,20.60
2018-08-30T14:28:33.973Z,20.50
2018-08-30T14:30:38.724Z,20.60
2018-08-30T14:32:43.500Z,20.60
2018-08-30T14:34:48.299Z,20.60
2018-08-30T14:36:53.134Z,20.70
2018-08-30T14:38:58.351Z,20.80
2018-08-30T14:41:03.117Z,20.80
2018-08-30T14:43:07.954Z,20.70
2018-08-30T14:45:13.140Z,20.70
2018-08-30T14:47:17.838Z,20.80
2018-08-30T14:49:22.639Z,20.90
2018-08-30T14:51:28.019Z,20.80
2018-08-30T14:53:32.828Z,20.90
2018-08-30T14:55:37.603Z,20.80
2018-08-30T14:57:42.343Z,20.80
2018-08-30T14:59:47.310Z,20.90
2018-08-30T15:01:52.467Z,20.70
2018-08-30T15:03:57.405Z,20.70
2018-08-30T15:06:02.679Z,20.70
2018-08-30T15:08:07.367Z,20.80
2018-08-30T15:10:12.179Z,20.80
2018-08-30T15:12:17.004Z,20.90
2018-08-30T15:14:21.955Z,20.80
2018-08-30T15:16:26.707Z,20.80
2018-08-30T15:18:31.537Z,20.90
2018-08-30T15:20:36.569Z,20.80
2018-08-30T15:22:41.553Z,20.80
2018-08-30T15:24:46.194Z,20.80
2018-08-30T15:26:50.940Z,20.70
2018-08-30T15:28:55.860Z,20.70
2018-08-30T15:31:00.710Z,20.80
2018-08-30T15:33:05.637Z,20.80
2018-08-30T15:35:10.428Z,20.80
2018-08-30T15:37:15.198Z,20.80
2018-08-30T15:39:20.024Z,20.80
2018-08-30T15:41:24.955Z,20.80
2018-08-30T15:43:29.571Z,20.80
2018-08-30T15:45:34.452Z,20.80
2018-08-30T15:47:39.313Z,20.80
2018-08-30T15:49:44.308Z,20.80
2018-08-30T15:51:49.117Z,20.80
2018-08-30T15:53:53.954Z,20.90
2018-08-30T15:55:58.674Z,21.20
2018-08-30T15:58:03.497Z,21.40
2018-08-30T16:00:08.948Z,21.50
2018-08-30T16:02:13.948Z,21.50
2018-08-30T16:04:18.672Z,21.60
2018-08-30T16:06:23.588Z,21.70
2018-08-30T16:08:28.261Z,21.70
2018-08-30T16:10:33.017Z,21.90
2018-08-30T16:12:38.009Z,22.20
2018-08-30T16:14:42.838Z,22.50
2018-08-30T16:16:48.450Z,22.90
2018-08-30T16:18:53.563Z,23.00
2018-08-30T16:20:58.507Z,23.00
2018-08-30T16:23:08.659Z,22.90
2018-08-30T16:25:13.416Z,22.50
2018-08-30T16:27:18.271Z,22.60
2018-08-30T16:29:23.071Z,22.70
2018-08-30T16:31:28.055Z,22.40
2018-08-30T16:33:32.940Z,22.40
2018-08-30T16:35:37.753Z,22.10
2018-08-30T16:37:42.860Z,21.70
2018-08-30T16:39:47.748Z,21.60
2018-08-30T16:41:52.595Z,21.50
2018-08-30T16:43:57.476Z,21.40
2018-08-30T16:46:02.354Z,21.30
2018-08-30T16:48:07.525Z,21.10
2018-08-30T16:50:12.388Z,21.20
2018-08-30T16:52:17.053Z,21.20
2018-08-30T16:54:21.881Z,21.10
2018-08-30T16:56:26.849Z,21.00
2018-08-30T16:58:31.601Z,21.00
2018-08-30T17:00:36.718Z,21.00
2018-08-30T17:02:41.941Z,20.80
2018-08-30T17:04:46.743Z,20.80
2018-08-30T17:06:51.607Z,20.80
2018-08-30T17:08:56.500Z,20.80
2018-08-30T17:11:01.316Z,20.80
2018-08-30T17:13:06.045Z,20.80
2018-08-30T17:15:10.863Z,20.70
2018-08-30T17:17:16.134Z,20.70
2018-08-30T17:19:29.077Z,20.60
2018-08-30T17:21:34.036Z,20.60
2018-08-30T17:23:38.948Z,20.60
2018-08-30T17:25:44.115Z,20.50
2018-08-30T17:27:48.963Z,20.50
2018-08-30T17:29:53.810Z,20.50
2018-08-30T17:31:58.618Z,20.40
2018-08-30T17:34:03.430Z,20.40
2018-08-30T17:36:08.444Z,20.40
2018-08-30T17:38:13.136Z,20.50
2018-08-30T17:40:18.067Z,20.40
2018-08-30T17:42:22.840Z,20.40
2018-08-30T17:44:27.754Z,20.30
2018-08-30T17:46:32.602Z,20.20
2018-08-30T17:48:37.383Z,20.20
2018-08-30T17:50:42.211Z,20.20
2018-08-30T17:52:47.174Z,20.20
2018-08-30T17:54:52.194Z,20.10
2018-08-30T17:56:57.080Z,20.10
2018-08-30T17:59:01.923Z,20.00
2018-08-30T18:01:06.821Z,20.00
2018-08-30T18:03:11.993Z,19.80
2018-08-30T18:05:17.174Z,19.70
2018-08-30T18:07:21.896Z,19.60
2018-08-30T18:09:26.747Z,19.60
2018-08-30T18:11:31.721Z,19.40
2018-08-30T18:13:36.560Z,19.50
2018-08-30T18:15:41.372Z,19.40
2018-08-30T18:17:46.708Z,19.40
2018-08-30T18:19:52.473Z,19.30
2018-08-30T18:21:57.223Z,19.10
2018-08-30T18:24:02.706Z,19.10
2018-08-30T18:26:07.895Z,19.00
2018-08-30T18:28:12.916Z,18.90
2018-08-30T18:30:18.119Z,18.80
2018-08-30T18:32:23.121Z,18.90
2018-08-30T18:34:28.522Z,18.90
2018-08-30T18:36:33.680Z,18.80
2018-08-30T18:38:38.960Z,18.80
2018-08-30T18:40:43.873Z,18.70
2018-08-30T18:42:48.951Z,18.60
2018-08-30T18:44:53.834Z,18.70
2018-08-30T18:46:58.899Z,18.60
2018-08-30T18:49:03.815Z,18.70
2018-08-30T18:51:08.730Z,18.60
2018-08-30T18:53:13.638Z,18.40
2018-08-30T18:55:18.662Z,18.40
2018-08-30T18:57:24.442Z,18.30
2018-08-30T18:59:29.283Z,18.20
2018-08-30T19:01:34.644Z,18.10
2018-08-30T19:03:41.788Z,18.10
2018-08-30T19:05:46.881Z,18.10
2018-08-30T19:07:52.202Z,18.00
2018-08-30T19:09:57.500Z,18.00
2018-08-30T19:12:04.167Z,18.00
2018-08-30T19:14:10.734Z,17.90
2018-08-30T19:18:22.277Z,17.80
2018-08-30T19:20:28.650Z,17.80
2018-08-30T19:22:33.922Z,17.80
2018-08-30T19:24:44.892Z,17.90
2018-08-30T19:26:50.835Z,17.80
2018-08-30T19:28:57.057Z,17.80
2018-08-30T19:31:02.986Z,17.80
2018-08-30T19:33:12.097Z,17.70
2018-08-30T19:35:25.516Z,17.70
2018-08-30T19:37:32.199Z,17.70
2018-08-30T19:39:41.751Z,17.70
2018-08-30T19:41:51.241Z,17.60
2018-08-30T19:44:00.547Z,17.70
2018-08-30T19:46:12.468Z,17.60
2018-08-30T19:48:21.744Z,17.50
2018-08-30T19:50:28.959Z,17.40
2018-08-30T19:52:36.752Z,17.40
2018-08-30T19:54:45.482Z,17.40
2018-08-30T19:56:50.749Z,17.30
2018-08-30T19:58:57.236Z,17.50
2018-08-30T20:01:05.976Z,17.50
2018-08-30T20:03:15.161Z,17.30
2018-08-30T20:05:22.833Z,17.30
2018-08-30T20:07:28.345Z,17.20
2018-08-30T20:09:33.563Z,17.20
2018-08-30T20:11:39.549Z,17.20
2018-08-30T20:13:45.106Z,17.20
2018-08-30T20:15:50.924Z,17.10
2018-08-30T20:17:57.456Z,17.10
2018-08-30T20:20:02.658Z,17.10
2018-08-30T20:22:11.675Z,17.00
2018-08-30T20:24:17.027Z,17.00
2018-08-30T20:26:22.429Z,16.80
2018-08-30T20:28:27.670Z,16.80
2018-08-30T20:33:16.438Z,16.80
2018-08-30T20:35:21.653Z,16.70
2018-08-30T20:37:26.563Z,16.70
2018-08-30T20:39:31.760Z,16.60
2018-08-30T20:41:36.654Z,16.70
2018-08-30T20:43:41.419Z,16.70
2018-08-30T20:45:46.480Z,16.60
2018-08-30T20:47:52.029Z,16.60
2018-08-30T20:49:57.353Z,16.50
2018-08-30T20:52:02.440Z,16.60
2018-08-30T20:54:10.155Z,16.50
2018-08-30T20:56:15.346Z,16.40
2018-08-30T20:58:20.512Z,16.40
2018-08-30T21:00:25.561Z,16.30
2018-08-30T21:02:30.447Z,16.20
2018-08-30T21:04:35.395Z,16.20
2018-08-30T21:06:40.494Z,16.20
2018-08-30T21:08:45.501Z,16.20
2018-08-30T21:10:51.489Z,16.10
2018-08-30T21:12:56.264Z,16.10
2018-08-30T21:15:01.047Z,16.10
2018-08-30T21:17:06.343Z,16.10
2018-08-30T21:19:11.109Z,16.30
2018-08-30T21:21:15.852Z,16.10
2018-08-30T21:23:20.795Z,16.10
2018-08-30T21:25:25.807Z,16.10
2018-08-30T21:27:30.712Z,16.00
2018-08-30T21:29:35.752Z,16.00
2018-08-30T21:31:40.528Z,16.00
2018-08-30T21:33:45.304Z,15.90
2018-08-30T21:35:50.432Z,16.00
2018-08-30T21:37:55.337Z,15.90
2018-08-30T21:40:00.542Z,15.90
2018-08-30T21:42:05.708Z,15.80
2018-08-30T21:44:10.551Z,15.80
2018-08-30T21:46:15.381Z,15.70
2018-08-30T21:48:20.541Z,15.70
2018-08-30T21:50:25.438Z,15.70
2018-08-30T21:52:30.218Z,15.70
2018-08-30T21:54:35.085Z,15.60
2018-08-30T21:56:39.875Z,15.60
2018-08-30T21:58:44.831Z,15.50
2018-08-30T22:00:49.725Z,15.50
2018-08-30T22:02:54.714Z,15.50
2018-08-30T22:04:59.693Z,15.50
2018-08-30T22:07:04.607Z,15.50
2018-08-30T22:09:11.722Z,15.50
2018-08-30T22:11:16.446Z,15.50
2018-08-30T22:13:21.396Z,15.50
2018-08-30T22:15:26.146Z,15.40
2018-08-30T22:17:30.952Z,15.40
2018-08-30T22:19:35.884Z,15.40
2018-08-30T22:21:40.779Z,15.40
2018-08-30T22:23:45.497Z,15.50
2018-08-30T22:25:50.412Z,15.50
2018-08-30T22:27:55.221Z,15.40
2018-08-30T22:30:00.071Z,15.40
2018-08-30T22:32:04.991Z,15.30
2018-08-30T22:34:09.728Z,15.30
2018-08-30T22:36:14.742Z,15.20
2018-08-30T22:38:19.527Z,15.20
2018-08-30T22:40:24.424Z,15.40
2018-08-30T22:42:29.066Z,15.30
2018-08-30T22:44:33.946Z,15.30
2018-08-30T22:46:38.726Z,15.30
2018-08-30T22:48:43.631Z,15.20
2018-08-30T22:50:48.420Z,15.20
2018-08-30T22:52:53.102Z,15.10
2018-08-30T22:54:57.962Z,15.10
2018-08-30T22:57:02.885Z,15.00
2018-08-30T22:59:07.806Z,15.00
2018-08-30T23:01:12.669Z,14.90
2018-08-30T23:03:17.473Z,14.90
2018-08-30T23:05:22.162Z,14.90
2018-08-30T23:07:27.251Z,14.80
2018-08-30T23:09:32.048Z,14.80
2018-08-30T23:11:36.943Z,14.70
2018-08-30T23:13:41.692Z,14.70
2018-08-30T23:15:46.363Z,14.70
2018-08-30T23:17:51.278Z,14.70
2018-08-30T23:19:56.261Z,14.60
2018-08-30T23:22:01.247Z,14.60
2018-08-30T23:24:06.409Z,14.60
2018-08-30T23:28:18.403Z,14.60
2018-08-30T23:30:23.482Z,14.60
2018-08-30T23:32:28.407Z,14.60
2018-08-30T23:34:33.152Z,14.60
2018-08-30T23:36:37.989Z,14.50
2018-08-30T23:38:42.888Z,14.50
2018-08-30T23:40:47.914Z,14.40
2018-08-30T23:42:52.703Z,14.50
2018-08-30T23:44:57.588Z,14.40
2018-08-30T23:47:02.490Z,14.50
2018-08-30T23:49:07.745Z,14.40
2018-08-30T23:51:12.720Z,14.40
2018-08-30T23:53:17.634Z,14.40
2018-08-30T23:55:22.482Z,14.40
2018-08-30T23:57:27.192Z,14.40
